createdAt,value
2018-03-07T00:01:02.061Z,90.42
2018-03-07T00:03:31.146Z,90.26
2018-03-07T00:05:59.490Z,90.59
2018-03-07T00:08:28.104Z,90.61
2018-03-07T00:10:57.026Z,90.61
2018-03-07T00:13:25.324Z,90.42
2018-03-07T00:15:53.849Z,90.31
2018-03-07T00:18:22.182Z,90.25
2018-03-07T00:20:50.705Z,90.25
2018-03-07T00:23:19.200Z,89.71
2018-03-07T00:25:48.264Z,90.12
2018-03-07T00:28:16.704Z,90.56
2018-03-07T00:30:45.019Z,90.17
2018-03-07T00:33:13.424Z,90.56
2018-03-07T00:35:42.464Z,90.36
2018-03-07T00:38:10.716Z,90.26
2018-03-07T00:40:40.219Z,90.07
2018-03-07T00:43:09.266Z,90.46
2018-03-07T00:45:37.801Z,90.16
2018-03-07T00:48:06.059Z,90.07
2018-03-07T00:50:34.334Z,89.86
2018-03-07T00:53:03.371Z,89.89
2018-03-07T00:55:31.834Z,90.07
2018-03-07T00:58:00.222Z,89.96
2018-03-07T01:00:28.728Z,89.66
2018-03-07T01:02:57.082Z,89.77
2018-03-07T01:05:25.510Z,90.11
2018-03-07T01:07:54.845Z,90.08
2018-03-07T01:10:23.200Z,90.23
2018-03-07T01:12:51.534Z,90.14
2018-03-07T01:15:19.874Z,90.00
2018-03-07T01:17:48.198Z,90.17
2018-03-07T01:20:16.607Z,89.99
2018-03-07T01:22:44.872Z,89.94
2018-03-07T01:25:13.931Z,90.09
2018-03-07T01:27:43.188Z,90.13
2018-03-07T01:30:11.684Z,90.10
2018-03-07T01:32:39.943Z,90.29
2018-03-07T01:35:08.263Z,90.02
2018-03-07T01:37:36.555Z,89.72
2018-03-07T01:40:05.693Z,89.98
2018-03-07T01:42:34.231Z,90.39
2018-03-07T01:45:02.592Z,90.05
2018-03-07T01:47:30.874Z,89.91
2018-03-07T01:49:59.150Z,90.34
2018-03-07T01:52:27.606Z,90.75
2018-03-07T01:54:56.092Z,90.14
2018-03-07T01:57:24.357Z,89.74
2018-03-07T01:59:52.686Z,88.95
2018-03-07T02:02:21.248Z,88.97
2018-03-07T02:04:50.286Z,88.66
2018-03-07T02:07:18.541Z,89.13
2018-03-07T02:09:46.828Z,89.58
2018-03-07T02:12:15.166Z,89.07
2018-03-07T02:14:43.726Z,88.99
2018-03-07T02:17:12.812Z,89.62
2018-03-07T02:19:41.162Z,88.85
2018-03-07T02:22:09.621Z,88.61
2018-03-07T02:24:38.094Z,89.12
2018-03-07T02:27:07.145Z,90.00
2018-03-07T02:29:35.421Z,89.87
2018-03-07T02:32:03.891Z,89.48
2018-03-07T02:34:32.205Z,89.08
2018-03-07T02:37:00.617Z,89.11
2018-03-07T02:39:28.902Z,89.18
2018-03-07T02:41:57.254Z,89.35
2018-03-07T02:44:26.385Z,89.64
2018-03-07T02:46:55.079Z,89.75
2018-03-07T02:49:23.354Z,89.35
2018-03-07T02:51:51.613Z,89.87
2018-03-07T02:54:19.891Z,90.10
2018-03-07T02:56:48.274Z,90.40
2018-03-07T02:59:16.554Z,89.93
2018-03-07T03:01:44.942Z,89.15
2018-03-07T03:04:13.216Z,89.23
2018-03-07T03:06:42.084Z,89.51
2018-03-07T03:09:10.360Z,90.19
2018-03-07T03:11:38.613Z,90.29
2018-03-07T03:14:07.041Z,90.25
2018-03-07T03:16:36.250Z,90.62
2018-03-07T03:19:04.553Z,91.29
2018-03-07T03:21:33.665Z,90.78
2018-03-07T03:24:01.966Z,91.41
2018-03-07T03:26:30.246Z,91.10
2018-03-07T03:28:58.505Z,90.86
2018-03-07T03:31:26.789Z,91.26
2018-03-07T03:33:55.060Z,91.30
2018-03-07T03:36:23.490Z,91.02
2018-03-07T03:38:52.560Z,90.92
2018-03-07T03:41:20.812Z,91.55
2018-03-07T03:43:49.117Z,91.83
2018-03-07T03:46:17.515Z,91.57
2018-03-07T03:48:46.539Z,90.69
2018-03-07T03:51:14.835Z,90.15
2018-03-07T03:53:43.193Z,90.20
2018-03-07T03:56:11.478Z,90.31
2018-03-07T03:58:39.966Z,90.66
2018-03-07T04:01:08.253Z,90.45
2018-03-07T04:03:36.603Z,90.54
2018-03-07T04:06:05.004Z,90.96
2018-03-07T04:08:33.289Z,91.16
2018-03-07T04:11:01.558Z,90.78
2018-03-07T04:13:29.891Z,90.83
2018-03-07T04:15:58.147Z,90.69
2018-03-07T04:18:27.891Z,90.26
2018-03-07T04:20:56.305Z,90.30
2018-03-07T04:23:24.563Z,90.34
2018-03-07T04:25:53.775Z,90.75
2018-03-07T04:28:22.069Z,90.97
2018-03-07T04:30:51.114Z,91.39
2018-03-07T04:33:19.398Z,92.18
2018-03-07T04:35:47.661Z,91.76
2018-03-07T04:38:15.936Z,91.84
2018-03-07T04:40:44.246Z,91.55
2018-03-07T04:43:12.498Z,92.28
2018-03-07T04:45:40.770Z,91.28
2018-03-07T04:48:09.042Z,91.60
2018-03-07T04:50:37.334Z,91.47
2018-03-07T04:53:05.590Z,91.55
2018-03-07T04:55:33.866Z,92.13
2018-03-07T04:58:02.132Z,93.16
2018-03-07T05:00:30.408Z,94.35
2018-03-07T05:02:59.365Z,94.80
2018-03-07T05:05:28.479Z,94.93
2018-03-07T05:07:56.744Z,94.25
2018-03-07T05:10:25.034Z,94.19
2018-03-07T05:12:53.312Z,93.92
2018-03-07T05:15:21.654Z,93.75
2018-03-07T05:17:50.703Z,94.51
2018-03-07T05:20:19.058Z,94.49
2018-03-07T05:22:47.402Z,94.42
2018-03-07T05:25:16.551Z,94.69
2018-03-07T05:27:45.033Z,94.48
2018-03-07T05:30:13.331Z,94.18
2018-03-07T05:32:42.634Z,93.86
2018-03-07T05:35:10.929Z,93.70
2018-03-07T05:37:40.014Z,93.14
2018-03-07T05:40:08.443Z,92.66
2018-03-07T05:42:36.971Z,92.54
2018-03-07T05:45:05.423Z,92.96
2018-03-07T05:47:33.839Z,93.14
2018-03-07T05:50:02.888Z,93.10
2018-03-07T05:52:31.301Z,93.33
2018-03-07T05:55:00.372Z,93.29
2018-03-07T05:57:28.629Z,93.54
2018-03-07T05:59:56.903Z,93.09
2018-03-07T06:02:25.181Z,93.00
2018-03-07T06:04:53.443Z,92.76
2018-03-07T06:07:21.723Z,92.50
2018-03-07T06:09:50.000Z,92.24
2018-03-07T06:12:18.280Z,91.21
2018-03-07T06:14:46.633Z,90.45
2018-03-07T06:17:14.895Z,89.66
2018-03-07T06:19:43.158Z,89.46
2018-03-07T06:22:12.228Z,89.01
2018-03-07T06:24:40.800Z,88.47
2018-03-07T06:27:09.067Z,88.54
2018-03-07T06:29:37.539Z,89.13
2018-03-07T06:32:05.956Z,88.55
2018-03-07T06:34:35.017Z,88.51
2018-03-07T06:37:03.317Z,87.96
2018-03-07T06:39:31.760Z,87.83
2018-03-07T06:42:00.035Z,88.02
2018-03-07T06:44:28.371Z,87.78
2018-03-07T06:46:57.406Z,87.36
2018-03-07T06:49:25.684Z,87.29
2018-03-07T06:51:54.667Z,87.38
2018-03-07T06:54:22.920Z,86.62
2018-03-07T06:56:51.204Z,86.75
2018-03-07T06:59:20.476Z,87.31
2018-03-07T07:01:49.556Z,87.32
2018-03-07T07:04:22.455Z,87.10
2018-03-07T07:06:50.736Z,87.37
2018-03-07T07:09:19.774Z,87.38
2018-03-07T07:11:48.066Z,87.57
2018-03-07T07:14:17.077Z,86.66
2018-03-07T07:16:46.118Z,87.07
2018-03-07T07:19:14.386Z,87.04
2018-03-07T07:21:42.682Z,87.47
2018-03-07T07:24:10.954Z,86.91
2018-03-07T07:26:39.206Z,86.30
2018-03-07T07:29:07.497Z,86.23
2018-03-07T07:31:35.764Z,85.92
2018-03-07T07:34:04.051Z,86.71
2018-03-07T07:36:32.341Z,86.87
2018-03-07T07:39:00.691Z,87.10
2018-03-07T07:41:28.947Z,86.84
2018-03-07T07:43:57.209Z,87.02
2018-03-07T07:46:26.303Z,86.40
2018-03-07T07:48:55.370Z,86.03
2018-03-07T07:51:23.667Z,85.76
2018-03-07T07:53:51.956Z,86.00
2018-03-07T07:56:20.301Z,86.27
2018-03-07T07:58:48.591Z,85.79
2018-03-07T08:01:17.611Z,85.45
2018-03-07T08:03:46.046Z,85.16
2018-03-07T08:06:15.120Z,84.59
2018-03-07T08:08:43.452Z,83.78
2018-03-07T08:11:11.718Z,83.70
2018-03-07T08:13:40.806Z,83.61
2018-03-07T08:16:10.939Z,83.88
2018-03-07T08:18:39.243Z,83.53
2018-03-07T08:21:07.672Z,83.28
2018-03-07T08:23:36.705Z,82.52
2018-03-07T08:26:05.035Z,82.70
2018-03-07T08:28:34.160Z,82.54
2018-03-07T08:31:02.728Z,82.04
2018-03-07T08:33:31.876Z,81.77
2018-03-07T08:36:00.335Z,81.72
2018-03-07T08:38:28.924Z,80.64
2018-03-07T08:40:57.221Z,79.57
2018-03-07T08:43:25.483Z,78.24
2018-03-07T08:45:53.948Z,77.70
2018-03-07T08:48:22.207Z,77.72
2018-03-07T08:50:51.482Z,77.18
2018-03-07T08:53:20.618Z,76.78
2018-03-07T08:55:48.891Z,77.77
2018-03-07T08:58:18.165Z,78.19
2018-03-07T09:00:46.679Z,77.90
2018-03-07T09:03:14.948Z,78.04
2018-03-07T09:05:43.213Z,77.86
2018-03-07T09:08:11.517Z,76.45
2018-03-07T09:10:39.782Z,76.16
2018-03-07T09:13:08.178Z,76.12
2018-03-07T09:15:36.462Z,75.61
2018-03-07T09:18:04.857Z,76.14
2018-03-07T09:20:33.301Z,75.67
2018-03-07T09:23:03.231Z,74.15
2018-03-07T09:25:33.613Z,75.43
2018-03-07T09:28:02.029Z,75.75
2018-03-07T09:30:31.182Z,76.05
2018-03-07T09:32:59.431Z,74.57
2018-03-07T09:35:28.473Z,75.45
2018-03-07T09:37:56.754Z,74.41
2018-03-07T09:40:25.103Z,74.06
2018-03-07T09:42:53.426Z,74.33
2018-03-07T09:45:21.853Z,73.12
2018-03-07T09:47:50.197Z,72.74
2018-03-07T09:50:18.476Z,73.04
2018-03-07T09:52:50.973Z,71.67
2018-03-07T09:55:19.226Z,71.70
2018-03-07T09:57:48.262Z,72.64
2018-03-07T10:00:16.602Z,72.22
2018-03-07T10:02:45.648Z,71.27
2018-03-07T10:05:14.390Z,70.39
2018-03-07T10:07:43.440Z,67.40
2018-03-07T10:10:12.503Z,67.31
2018-03-07T10:12:40.758Z,67.02
2018-03-07T10:15:09.057Z,67.63
2018-03-07T10:17:37.304Z,66.99
2018-03-07T10:20:05.690Z,68.03
2018-03-07T10:22:33.984Z,68.80
2018-03-07T10:25:02.387Z,68.39
2018-03-07T10:27:30.847Z,68.08
2018-03-07T10:29:59.440Z,66.66
2018-03-07T10:32:28.655Z,67.25
2018-03-07T10:34:57.681Z,68.25
2018-03-07T10:37:26.165Z,67.39
2018-03-07T10:39:54.421Z,67.47
2018-03-07T10:42:23.628Z,67.15
2018-03-07T10:44:52.825Z,66.66
2018-03-07T10:47:21.111Z,66.49
2018-03-07T10:49:49.407Z,65.21
2018-03-07T10:52:17.802Z,64.12
2018-03-07T10:54:46.278Z,63.54
2018-03-07T10:57:15.256Z,63.51
2018-03-07T10:59:43.535Z,62.66
2018-03-07T11:02:11.824Z,63.48
2018-03-07T11:04:40.082Z,61.86
2018-03-07T11:07:11.461Z,60.92
2018-03-07T11:09:40.729Z,59.86
2018-03-07T11:12:10.029Z,59.35
2018-03-07T11:14:38.274Z,60.00
2018-03-07T11:17:06.956Z,60.14
2018-03-07T11:19:36.361Z,60.78
2018-03-07T11:22:04.761Z,60.88
2018-03-07T11:24:33.013Z,60.62
2018-03-07T11:27:01.365Z,60.43
2018-03-07T11:29:32.181Z,60.94
2018-03-07T11:32:02.320Z,61.72
2018-03-07T11:34:30.629Z,60.83
2018-03-07T11:36:58.905Z,59.26
2018-03-07T11:39:27.210Z,58.21
2018-03-07T11:41:55.498Z,58.22
2018-03-07T11:44:23.814Z,58.52
2018-03-07T11:46:52.270Z,58.40
2018-03-07T11:49:20.832Z,58.40
2018-03-07T11:51:49.075Z,58.45
2018-03-07T11:54:17.364Z,59.86
2018-03-07T11:56:45.652Z,60.75
2018-03-07T11:59:14.081Z,58.47
2018-03-07T12:01:43.767Z,58.87
2018-03-07T12:04:12.869Z,58.02
2018-03-07T12:06:41.297Z,58.24
2018-03-07T12:09:09.592Z,59.70
2018-03-07T12:11:37.955Z,58.38
2018-03-07T12:14:06.236Z,59.00
2018-03-07T12:16:34.580Z,58.69
2018-03-07T12:19:03.599Z,57.17
2018-03-07T12:21:31.843Z,56.59
2018-03-07T12:24:00.141Z,55.96
2018-03-07T12:26:28.417Z,55.58
2018-03-07T12:28:56.697Z,54.84
2018-03-07T12:31:24.964Z,53.34
2018-03-07T12:33:53.680Z,53.74
2018-03-07T12:36:22.010Z,52.47
2018-03-07T12:38:50.284Z,51.73
2018-03-07T12:41:18.568Z,52.35
2018-03-07T12:43:47.058Z,52.81
2018-03-07T12:46:15.369Z,52.47
2018-03-07T12:48:43.720Z,52.91
2018-03-07T12:51:12.028Z,52.45
2018-03-07T12:53:40.545Z,52.41
2018-03-07T12:56:08.849Z,52.20
2018-03-07T12:58:37.135Z,52.29
2018-03-07T13:01:05.406Z,52.62
2018-03-07T13:03:33.685Z,52.82
2018-03-07T13:06:01.940Z,52.39
2018-03-07T13:08:30.250Z,52.01
2018-03-07T13:10:58.678Z,52.26
2018-03-07T13:13:27.998Z,51.73
2018-03-07T13:15:56.264Z,51.58
2018-03-07T13:18:24.550Z,52.10
2018-03-07T13:20:52.883Z,50.77
2018-03-07T13:23:21.924Z,50.70
2018-03-07T13:25:50.250Z,51.63
2018-03-07T13:28:19.335Z,51.89
2018-03-07T13:30:51.857Z,51.94
2018-03-07T13:33:20.140Z,52.22
2018-03-07T13:35:48.578Z,52.66
2018-03-07T13:38:18.136Z,52.52
2018-03-07T13:40:47.721Z,53.22
2018-03-07T13:43:16.178Z,52.75
2018-03-07T13:45:45.505Z,52.96
2018-03-07T13:48:14.407Z,53.14
2018-03-07T13:50:43.297Z,53.53
2018-03-07T13:53:12.382Z,53.08
2018-03-07T13:55:40.853Z,53.97
2018-03-07T13:58:09.238Z,53.72
2018-03-07T14:00:37.694Z,53.58
2018-03-07T14:03:06.931Z,52.99
2018-03-07T14:05:35.226Z,53.21
2018-03-07T14:08:03.528Z,53.02
2018-03-07T14:10:33.586Z,53.26
2018-03-07T14:13:01.970Z,52.56
2018-03-07T14:15:31.196Z,52.70
2018-03-07T14:18:01.279Z,51.85
2018-03-07T14:20:30.573Z,52.39
2018-03-07T14:22:58.916Z,52.32
2018-03-07T14:25:27.315Z,52.10
2018-03-07T14:27:55.602Z,53.10
2018-03-07T14:30:23.901Z,53.56
2018-03-07T14:32:52.188Z,52.73
2018-03-07T14:35:20.498Z,52.71
2018-03-07T14:37:48.787Z,52.91
2018-03-07T14:40:17.114Z,53.23
2018-03-07T14:42:46.919Z,52.87
2018-03-07T14:45:15.991Z,52.21
2018-03-07T14:47:44.320Z,51.42
2018-03-07T14:50:12.639Z,50.92
2018-03-07T14:52:41.000Z,51.51
2018-03-07T14:55:09.354Z,52.12
2018-03-07T14:57:37.784Z,51.64
2018-03-07T15:00:06.067Z,51.95
2018-03-07T15:02:34.472Z,52.14
2018-03-07T15:05:02.876Z,52.93
2018-03-07T15:07:31.510Z,52.88
2018-03-07T15:10:00.124Z,52.85
2018-03-07T15:12:29.759Z,52.76
2018-03-07T15:14:58.028Z,53.46
2018-03-07T15:17:26.313Z,53.56
2018-03-07T15:19:54.793Z,54.08
2018-03-07T15:22:23.147Z,53.83
2018-03-07T15:24:51.462Z,53.87
2018-03-07T15:27:19.782Z,53.34
2018-03-07T15:29:48.934Z,57.60
2018-03-07T15:32:17.202Z,63.24
2018-03-07T15:34:45.469Z,66.75
2018-03-07T15:37:13.737Z,66.79
2018-03-07T15:39:42.045Z,66.31
2018-03-07T15:42:10.314Z,67.34
2018-03-07T15:44:38.608Z,64.89
2018-03-07T15:47:06.954Z,64.44
2018-03-07T15:49:35.388Z,63.67
2018-03-07T15:52:03.752Z,64.18
2018-03-07T15:54:32.189Z,63.47
2018-03-07T15:57:00.642Z,63.21
2018-03-07T15:59:28.904Z,61.95
2018-03-07T16:01:57.185Z,62.55
2018-03-07T16:04:25.462Z,60.90
2018-03-07T16:06:53.735Z,59.70
2018-03-07T16:09:22.035Z,61.17
2018-03-07T16:11:50.409Z,59.20
2018-03-07T16:14:18.824Z,57.38
2018-03-07T16:16:47.101Z,56.17
2018-03-07T16:19:15.423Z,57.11
2018-03-07T16:21:43.775Z,58.65
2018-03-07T16:24:12.421Z,61.03
2018-03-07T16:26:40.799Z,60.85
2018-03-07T16:29:09.152Z,61.27
2018-03-07T16:31:37.581Z,61.20
2018-03-07T16:34:05.892Z,61.13
2018-03-07T16:36:35.107Z,60.66
2018-03-07T16:39:03.665Z,61.69
2018-03-07T16:41:32.730Z,62.44
2018-03-07T16:44:01.016Z,61.84
2018-03-07T16:46:30.042Z,62.20
2018-03-07T16:48:58.340Z,63.92
2018-03-07T16:51:26.638Z,64.12
2018-03-07T16:53:54.956Z,65.16
2018-03-07T16:56:23.409Z,65.37
2018-03-07T16:58:51.699Z,67.32
2018-03-07T17:01:20.730Z,67.95
2018-03-07T17:03:49.101Z,68.52
2018-03-07T17:06:17.379Z,69.28
2018-03-07T17:08:45.708Z,70.09
2018-03-07T17:11:14.742Z,70.60
2018-03-07T17:13:43.097Z,70.46
2018-03-07T17:16:12.258Z,70.91
2018-03-07T17:18:40.623Z,71.67
2018-03-07T17:21:09.083Z,71.90
2018-03-07T17:23:37.364Z,73.22
2018-03-07T17:26:05.627Z,73.35
2018-03-07T17:28:33.917Z,73.65
2018-03-07T17:31:02.381Z,74.23
2018-03-07T17:33:30.678Z,74.56
2018-03-07T17:35:59.102Z,75.23
2018-03-07T17:38:28.204Z,75.01
2018-03-07T17:40:57.730Z,75.32
2018-03-07T17:43:26.124Z,75.50
2018-03-07T17:45:54.409Z,75.54
2018-03-07T17:48:22.711Z,75.57
2018-03-07T17:50:51.764Z,75.38
2018-03-07T17:53:20.052Z,75.10
2018-03-07T17:55:48.342Z,75.04
2018-03-07T17:58:16.758Z,74.90
2018-03-07T18:00:45.067Z,75.04
2018-03-07T18:03:13.374Z,75.26
2018-03-07T18:05:42.638Z,75.31
2018-03-07T18:08:10.979Z,75.71
2018-03-07T18:10:40.013Z,75.26
2018-03-07T18:13:09.002Z,75.34
2018-03-07T18:15:37.640Z,75.61
2018-03-07T18:18:06.810Z,75.37
2018-03-07T18:20:35.826Z,75.26
2018-03-07T18:23:04.333Z,75.41
2018-03-07T18:25:33.101Z,75.82
2018-03-07T18:28:01.662Z,75.83
2018-03-07T18:30:30.208Z,75.53
2018-03-07T18:32:58.920Z,75.67
2018-03-07T18:35:27.520Z,75.81
2018-03-07T18:37:56.008Z,75.96
2018-03-07T18:40:24.908Z,76.01
2018-03-07T18:42:54.300Z,76.17
2018-03-07T18:45:23.219Z,75.86
2018-03-07T18:47:51.982Z,76.29
2018-03-07T18:50:21.248Z,76.68
2018-03-07T18:52:49.580Z,76.24
2018-03-07T18:55:18.082Z,76.51
2018-03-07T18:57:46.912Z,76.31
2018-03-07T19:00:15.854Z,76.69
2018-03-07T19:02:45.474Z,76.33
2018-03-07T19:05:15.344Z,76.59
2018-03-07T19:07:43.997Z,76.90
2018-03-07T19:10:13.805Z,76.33
2018-03-07T19:12:43.475Z,75.79
2018-03-07T19:15:12.315Z,75.74
2018-03-07T19:17:41.583Z,75.62
2018-03-07T19:20:11.084Z,75.87
2018-03-07T19:22:39.599Z,75.69
2018-03-07T19:25:07.983Z,75.75
2018-03-07T19:27:37.479Z,75.85
2018-03-07T19:30:07.542Z,75.77
2018-03-07T19:32:36.357Z,75.37
2018-03-07T19:35:05.852Z,75.22
2018-03-07T19:37:34.431Z,75.32
2018-03-07T19:40:03.121Z,75.73
2018-03-07T19:42:31.519Z,75.19
2018-03-07T19:45:00.883Z,75.50
2018-03-07T19:47:29.653Z,75.88
2018-03-07T19:49:58.442Z,75.54
2018-03-07T19:52:28.343Z,75.83
2018-03-07T19:54:56.805Z,75.87
2018-03-07T19:57:25.619Z,76.07
2018-03-07T19:59:54.165Z,76.35
2018-03-07T20:02:24.095Z,76.53
2018-03-07T20:04:52.759Z,76.56
2018-03-07T20:07:21.820Z,76.53
2018-03-07T20:09:51.085Z,76.17
2018-03-07T20:12:19.862Z,76.51
2018-03-07T20:14:48.285Z,76.92
2018-03-07T20:17:17.034Z,77.00
2018-03-07T20:19:48.911Z,76.99
2018-03-07T20:22:19.114Z,77.10
2018-03-07T20:24:48.595Z,77.55
2018-03-07T20:27:18.754Z,77.20
2018-03-07T20:29:47.994Z,77.00
2018-03-07T20:32:16.482Z,77.42
2018-03-07T20:34:46.070Z,76.93
2018-03-07T20:37:14.723Z,77.39
2018-03-07T20:39:43.253Z,77.02
2018-03-07T20:42:11.938Z,77.09
2018-03-07T20:44:40.868Z,77.72
2018-03-07T20:47:09.530Z,78.02
2018-03-07T20:49:39.163Z,77.91
2018-03-07T20:52:07.796Z,77.88
2018-03-07T20:54:36.885Z,77.97
2018-03-07T20:57:06.441Z,77.86
2018-03-07T20:59:34.886Z,78.15
2018-03-07T21:02:03.721Z,78.06
2018-03-07T21:04:32.339Z,77.62
2018-03-07T21:07:01.346Z,77.67
2018-03-07T21:09:31.344Z,77.94
2018-03-07T21:12:00.410Z,77.58
2018-03-07T21:14:28.878Z,78.07
2018-03-07T21:16:57.376Z,78.14
2018-03-07T21:19:25.861Z,78.01
2018-03-07T21:21:54.193Z,78.27
2018-03-07T21:24:22.546Z,78.14
2018-03-07T21:26:50.903Z,78.09
2018-03-07T21:29:19.226Z,78.14
2018-03-07T21:31:47.723Z,78.12
2018-03-07T21:34:16.043Z,78.20
2018-03-07T21:36:44.393Z,78.26
2018-03-07T21:39:14.169Z,78.74
2018-03-07T21:44:17.523Z,79.05
2018-03-07T21:46:46.834Z,79.38
2018-03-07T21:49:15.210Z,79.42
2018-03-07T21:51:43.506Z,79.58
2018-03-07T21:54:12.555Z,80.14
2018-03-07T21:56:40.826Z,80.10
2018-03-07T21:59:09.210Z,80.35
2018-03-07T22:01:37.494Z,80.43
2018-03-07T22:04:05.747Z,79.90
2018-03-07T22:06:34.084Z,80.19
2018-03-07T22:09:02.400Z,80.05
2018-03-07T22:11:31.620Z,80.35
2018-03-07T22:13:59.919Z,80.48
2018-03-07T22:16:28.220Z,80.26
2018-03-07T22:18:57.242Z,80.49
2018-03-07T22:21:25.608Z,80.45
2018-03-07T22:23:53.915Z,80.63
2018-03-07T22:26:22.164Z,80.98
2018-03-07T22:28:50.650Z,81.10
2018-03-07T22:31:18.958Z,80.86
2018-03-07T22:33:47.281Z,80.89
2018-03-07T22:36:15.583Z,80.73
2018-03-07T22:38:43.900Z,80.60
2018-03-07T22:41:12.939Z,81.49
2018-03-07T22:43:41.268Z,81.76
2018-03-07T22:46:09.690Z,81.53
2018-03-07T22:48:37.964Z,81.23
2018-03-07T22:51:06.704Z,81.46
2018-03-07T22:53:36.379Z,81.35
2018-03-07T22:56:04.744Z,81.64
2018-03-07T22:58:33.081Z,81.60
2018-03-07T23:01:01.596Z,81.83
2018-03-07T23:03:30.149Z,81.93
2018-03-07T23:05:58.556Z,81.84
2018-03-07T23:08:26.842Z,81.77
2018-03-07T23:10:55.734Z,81.51
2018-03-07T23:13:24.346Z,81.75
2018-03-07T23:15:52.607Z,81.22
2018-03-07T23:18:20.985Z,81.39
2018-03-07T23:20:50.890Z,81.48
2018-03-07T23:23:19.170Z,81.59
2018-03-07T23:25:47.460Z,81.31
2018-03-07T23:30:50.266Z,81.80
2018-03-07T23:33:18.598Z,81.62
2018-03-07T23:35:47.011Z,81.63
2018-03-07T23:38:15.347Z,81.90
2018-03-07T23:40:44.853Z,81.92
2018-03-07T23:43:13.148Z,81.86
2018-03-07T23:45:41.502Z,81.58
2018-03-07T23:48:09.882Z,81.71
2018-03-07T23:50:42.585Z,81.50
2018-03-07T23:53:11.044Z,81.49
2018-03-07T23:55:39.340Z,81.29
2018-03-07T23:58:07.594Z,81.25
